Portada
METAR-TAF:

METAR-TAF

Aeropuertos :

Aeropuerto Internacional de Osaka

Osaka, Japón

latitud: 34-47N, longitud: 135-27E, altitud: 12 m

Observación

El informe se hizo hace 45 minutos, a las 04:00 UTC
Viento 2 kt con dirección variable
Temperatura 12°C
Humedad 50%
Presión 1029 hPa
Visibilidad 10 km o más
Escasas nubes a una altura de 3000 ft
Cielo nuboso

METAR: RJOO 200400Z VRB02KT 9999 FEW030 BKN/// 12/02 Q1029 RMK 1CU030 A3039

Hora: 13:45 (04:45 UTC)

Pronóstico

El informe se hizo hace 5 horas y 39 minutos, a las 23:06 UTC
Pronóstico válido del 20 a las 00 UTC al 21 a las 06 UTC
Viento 5 kt del oeste-suroeste
Visibilidad 10 km o más
Escasas nubes a una altura de 3000 ft
Evolucionando progresivamente
del 20 a las 21 UTC al 21 a las 00 UTC
Viento 6 kt del este-noreste

TAF: RJOO 192306Z 2000/2106 24005KT 9999 FEW030 BECMG 2021/2100 07006KT

Observaciones y pronósticos meteorológicos de más de 4000 aeropuertos (mensajes METAR y TAF).

Los puntos amarillos y rojos representan las estaciones disponibles.

Ponga el ratón en el punto deseado para ver el nombre de la estación.

Haga clic para ver las observaciones y los pronósticos meteorológicos.

Para cambiar el mapa : haga clic en los botones verdes con una cruz de color negro para hacer un zoom, en el botón verde con un guión para alejar o en las flechas verdes para mapas adyacentes.


METAR-TAF: